createdAt,value
2023-01-27T00:04:27.761Z,2.05
2023-01-27T00:09:29.406Z,2.05
2023-01-27T00:14:31.358Z,1.80
2023-01-27T00:19:33.092Z,1.95
2023-01-27T00:24:37.757Z,1.73
2023-01-27T00:29:43.600Z,1.80
2023-01-27T00:34:45.417Z,1.80
2023-01-27T00:39:47.049Z,1.38
2023-01-27T00:45:07.165Z,2.08
2023-01-27T00:50:09.458Z,2.95
2023-01-27T00:55:11.830Z,2.08
2023-01-27T01:00:15.867Z,1.55
2023-01-27T01:05:17.692Z,1.75
2023-01-27T01:10:19.713Z,2.05
2023-01-27T01:15:21.451Z,1.83
2023-01-27T01:20:24.755Z,1.90
2023-01-27T01:25:26.444Z,2.30
2023-01-27T01:30:28.855Z,1.52
2023-01-27T01:35:30.922Z,1.30
2023-01-27T01:40:33.287Z,1.52
2023-01-27T01:45:36.473Z,1.67
2023-01-27T01:50:40.854Z,2.03
2023-01-27T01:55:46.455Z,1.20
2023-01-27T02:00:48.285Z,2.60
2023-01-27T02:05:52.065Z,1.85
2023-01-27T02:10:54.617Z,1.80
2023-01-27T02:15:56.317Z,2.15
2023-01-27T02:20:58.724Z,2.03
2023-01-27T02:26:18.943Z,3.55
2023-01-27T02:31:20.760Z,4.57
2023-01-27T02:36:24.015Z,4.93
2023-01-27T02:41:40.976Z,5.50
2023-01-27T02:46:43.110Z,5.28
2023-01-27T02:51:44.845Z,5.57
2023-01-27T02:56:46.665Z,5.43
2023-01-27T03:01:50.770Z,4.60
2023-01-27T03:06:52.460Z,4.05
2023-01-27T03:12:13.224Z,4.47
2023-01-27T03:17:33.884Z,4.35
2023-01-27T03:22:35.570Z,4.28
2023-01-27T03:27:37.700Z,5.18
2023-01-27T03:33:03.331Z,4.45
2023-01-27T03:38:55.692Z,5.32
2023-01-27T03:49:18.890Z,5.05
2023-01-27T03:54:20.528Z,4.50
2023-01-27T03:59:22.259Z,5.57
2023-01-27T04:04:42.851Z,3.88
2023-01-27T04:09:44.529Z,3.95
2023-01-27T04:14:46.166Z,3.78
2023-01-27T04:19:47.891Z,3.30
2023-01-27T04:24:50.355Z,3.10
2023-01-27T04:29:52.152Z,2.85
2023-01-27T04:34:54.225Z,2.88
2023-01-27T04:39:55.819Z,2.90
2023-01-27T04:44:57.500Z,2.55
2023-01-27T04:49:59.100Z,2.42
2023-01-27T04:55:00.739Z,1.65
2023-01-27T05:00:05.722Z,2.38
2023-01-27T05:05:07.684Z,1.88
2023-01-27T05:10:10.034Z,2.30
2023-01-27T05:15:12.033Z,2.00
2023-01-27T05:20:13.983Z,2.05
2023-01-27T05:25:15.958Z,1.80
2023-01-27T05:30:17.776Z,2.03
2023-01-27T05:35:19.401Z,2.40
2023-01-27T05:40:21.047Z,1.77
2023-01-27T05:45:22.656Z,1.70
2023-01-27T05:50:24.481Z,2.00
2023-01-27T05:55:26.095Z,2.47
2023-01-27T06:00:27.702Z,2.05
2023-01-27T06:05:29.380Z,2.15
2023-01-27T06:10:32.070Z,2.05
2023-01-27T06:15:33.736Z,2.10
2023-01-27T06:20:35.493Z,2.15
2023-01-27T06:25:39.697Z,1.92
2023-01-27T06:30:41.917Z,2.20
2023-01-27T06:35:43.809Z,1.90
2023-01-27T06:40:47.383Z,1.65
2023-01-27T06:45:50.638Z,1.42
2023-01-27T06:50:53.423Z,1.50
2023-01-27T06:55:57.076Z,1.70
2023-01-27T07:00:59.037Z,1.55
2023-01-27T07:06:00.874Z,1.27
2023-01-27T07:11:04.634Z,1.25
2023-01-27T07:16:06.777Z,1.10
2023-01-27T07:21:08.643Z,1.38
2023-01-27T07:26:24.210Z,1.23
2023-01-27T07:31:27.431Z,1.10
2023-01-27T07:36:29.173Z,1.30
2023-01-27T07:41:31.236Z,1.33
2023-01-27T07:46:32.837Z,1.15
2023-01-27T07:51:34.508Z,1.67
2023-01-27T07:56:36.505Z,1.70
2023-01-27T08:01:38.219Z,0.95
2023-01-27T08:06:39.894Z,2.13
2023-01-27T08:11:41.543Z,2.17
2023-01-27T08:16:43.366Z,1.50
2023-01-27T08:21:45.025Z,2.50
2023-01-27T08:26:46.767Z,1.90
2023-01-27T08:31:48.464Z,2.05
2023-01-27T08:36:50.067Z,2.30
2023-01-27T08:41:51.704Z,1.75
2023-01-27T08:46:56.506Z,2.70
2023-01-27T08:51:58.244Z,1.70
2023-01-27T08:57:00.013Z,1.50
2023-01-27T09:02:01.662Z,1.83
2023-01-27T09:07:03.545Z,2.70
2023-01-27T09:12:05.329Z,2.00
2023-01-27T09:17:07.362Z,2.38
2023-01-27T09:22:09.038Z,1.50
2023-01-27T09:27:10.863Z,1.60
2023-01-27T09:32:12.890Z,1.83
2023-01-27T09:37:14.776Z,1.98
2023-01-27T09:42:47.425Z,1.70
2023-01-27T09:48:23.604Z,1.65
2023-01-27T09:53:53.282Z,1.70
2023-01-27T09:59:20.535Z,1.65
2023-01-27T10:04:34.099Z,1.17
2023-01-27T10:10:02.638Z,1.58
2023-01-27T10:15:37.302Z,2.25
2023-01-27T10:20:55.658Z,1.92
2023-01-27T10:26:30.057Z,1.58
2023-01-27T10:31:54.468Z,1.42
2023-01-27T10:37:17.532Z,1.60
2023-01-27T10:42:32.290Z,1.30
2023-01-27T10:47:51.327Z,1.30
2023-01-27T10:53:13.583Z,1.40
2023-01-27T10:58:29.199Z,0.90
2023-01-27T11:03:43.362Z,1.30
2023-01-27T11:08:48.001Z,0.88
2023-01-27T11:14:02.159Z,1.42
2023-01-27T11:19:18.273Z,3.40
2023-01-27T11:24:45.995Z,1.20
2023-01-27T11:30:00.327Z,0.80
2023-01-27T11:35:14.397Z,1.77
2023-01-27T11:40:32.748Z,1.25
2023-01-27T11:45:36.290Z,1.17
2023-01-27T11:50:38.315Z,1.02
2023-01-27T11:55:48.564Z,3.38
2023-01-27T12:00:59.206Z,0.55
2023-01-27T12:06:05.803Z,0.65
2023-01-27T12:11:22.216Z,1.25
2023-01-27T12:16:47.753Z,0.90
2023-01-27T12:22:11.134Z,0.60
2023-01-27T12:27:25.999Z,0.70
2023-01-27T12:32:44.272Z,0.95
2023-01-27T12:37:47.933Z,0.70
2023-01-27T12:43:03.098Z,1.25
2023-01-27T12:48:07.739Z,0.60
2023-01-27T12:53:15.238Z,0.50
2023-01-27T12:58:43.367Z,0.70
2023-01-27T13:03:46.213Z,0.40
2023-01-27T13:08:52.829Z,3.13
2023-01-27T13:13:57.617Z,0.85
2023-01-27T13:19:00.960Z,0.50
2023-01-27T13:24:10.684Z,1.75
2023-01-27T13:29:21.371Z,1.80
2023-01-27T13:34:44.082Z,1.60
2023-01-27T13:39:45.650Z,0.90
2023-01-27T13:45:04.624Z,1.10
2023-01-27T13:50:20.644Z,1.10
2023-01-27T13:55:40.298Z,1.08
2023-01-27T14:01:03.098Z,0.93
2023-01-27T14:06:33.731Z,2.10
2023-01-27T14:11:56.436Z,1.17
2023-01-27T14:17:06.843Z,1.20
2023-01-27T14:22:20.367Z,1.00
2023-01-27T14:27:32.481Z,1.35
2023-01-27T14:32:51.973Z,1.10
2023-01-27T14:38:19.775Z,2.25
2023-01-27T14:43:46.755Z,1.55
2023-01-27T14:49:18.727Z,2.35
2023-01-27T14:55:05.043Z,1.25
2023-01-27T15:00:29.975Z,0.88
2023-01-27T15:05:43.717Z,1.90
2023-01-27T15:11:31.522Z,1.20
2023-01-27T15:16:42.361Z,1.77
2023-01-27T15:22:21.726Z,1.90
2023-01-27T15:27:24.940Z,1.25
2023-01-27T15:32:28.486Z,1.40
2023-01-27T15:37:30.292Z,3.33
2023-01-27T15:43:02.302Z,1.60
2023-01-27T15:48:10.347Z,1.80
2023-01-27T15:53:14.829Z,1.40
2023-01-27T15:58:22.217Z,1.55
2023-01-27T16:03:38.985Z,3.60
2023-01-27T16:08:49.467Z,1.52
2023-01-27T16:13:52.843Z,1.90
2023-01-27T16:19:10.876Z,1.48
2023-01-27T16:24:47.835Z,2.17
2023-01-27T16:30:06.681Z,2.63
2023-01-27T16:35:20.079Z,1.60
2023-01-27T16:40:24.079Z,1.60
2023-01-27T16:45:29.331Z,2.08
2023-01-27T16:50:34.831Z,3.92
2023-01-27T16:55:36.543Z,4.15
2023-01-27T17:00:39.317Z,4.70
2023-01-27T17:05:42.573Z,4.85
2023-01-27T17:10:52.320Z,3.55
2023-01-27T17:15:54.533Z,3.45
2023-01-27T17:20:56.871Z,3.22
2023-01-27T17:26:04.511Z,3.10
2023-01-27T17:31:08.237Z,7.95
2023-01-27T17:36:12.624Z,3.63
2023-01-27T17:41:23.665Z,6.93
2023-01-27T17:46:27.842Z,6.10
2023-01-27T17:51:41.514Z,4.63
2023-01-27T17:56:43.327Z,4.05
2023-01-27T18:01:46.270Z,3.40
2023-01-27T18:06:50.609Z,4.95
2023-01-27T18:11:58.394Z,3.08
2023-01-27T18:17:06.035Z,3.63
2023-01-27T18:22:10.848Z,3.65
2023-01-27T18:27:36.471Z,3.53
2023-01-27T18:32:40.557Z,3.80
2023-01-27T18:37:52.143Z,3.70
2023-01-27T18:42:55.212Z,4.65
2023-01-27T18:48:00.253Z,4.03
2023-01-27T18:53:11.698Z,5.10
2023-01-27T18:58:13.359Z,6.57
2023-01-27T19:03:18.004Z,4.35
2023-01-27T19:08:22.197Z,10.40
2023-01-27T19:13:23.922Z,5.47
2023-01-27T19:18:33.633Z,5.85
2023-01-27T19:23:35.528Z,4.47
2023-01-27T19:28:38.822Z,6.68
2023-01-27T19:33:44.027Z,4.72
2023-01-27T19:38:45.713Z,5.93
2023-01-27T19:43:50.113Z,6.53
2023-01-27T19:48:52.346Z,6.18
2023-01-27T19:53:54.170Z,7.65
2023-01-27T19:58:55.880Z,7.35
2023-01-27T20:03:57.687Z,6.00
2023-01-27T20:09:00.515Z,6.60
2023-01-27T20:14:05.244Z,5.30
2023-01-27T20:19:07.373Z,5.20
2023-01-27T20:24:16.443Z,5.03
2023-01-27T20:29:18.315Z,5.53
2023-01-27T20:34:19.969Z,4.10
2023-01-27T20:39:21.719Z,5.35
2023-01-27T20:44:23.612Z,4.90
2023-01-27T20:49:25.268Z,4.57
2023-01-27T20:54:26.990Z,7.35
2023-01-27T20:59:28.945Z,6.88
2023-01-27T21:04:30.781Z,8.50
2023-01-27T21:09:32.755Z,6.57
2023-01-27T21:14:34.491Z,8.60
2023-01-27T21:19:36.167Z,9.20
2023-01-27T21:24:37.909Z,7.05
2023-01-27T21:29:41.716Z,9.13
2023-01-27T21:34:43.378Z,5.93
2023-01-27T21:39:45.023Z,6.63
2023-01-27T21:45:05.410Z,6.63
2023-01-27T21:50:09.707Z,5.95
2023-01-27T21:55:15.199Z,5.65
2023-01-27T22:00:23.098Z,5.80
2023-01-27T22:05:25.702Z,5.47
2023-01-27T22:10:29.766Z,5.15
2023-01-27T22:15:31.981Z,5.32
2023-01-27T22:20:33.679Z,5.60
2023-01-27T22:25:35.558Z,4.35
2023-01-27T22:30:37.325Z,5.38
2023-01-27T22:35:41.950Z,4.63
2023-01-27T22:40:43.622Z,4.93
2023-01-27T22:45:45.465Z,4.60
2023-01-27T22:50:47.353Z,5.00
2023-01-27T22:56:04.886Z,4.30
2023-01-27T23:01:07.524Z,4.88
2023-01-27T23:06:09.499Z,5.70
2023-01-27T23:11:11.907Z,4.85
2023-01-27T23:16:13.815Z,4.60
2023-01-27T23:21:15.634Z,4.18
2023-01-27T23:26:17.693Z,4.93
2023-01-27T23:31:19.496Z,4.03
2023-01-27T23:36:21.319Z,3.58
2023-01-27T23:41:22.993Z,3.55
2023-01-27T23:46:25.481Z,3.78
2023-01-27T23:51:41.892Z,3.38
2023-01-27T23:56:46.233Z,3.35
